Time;durP1;ratioP1;P1;durP2;ratioP2;P2;SDS_P1;SDS_P2;PMS_P1;PMS_P2;Temp;Humidity;BMP_temperature;BMP_pressure;BME280_temperature;BME280_humidity;BME280_pressure;Samples;Min_cycle;Max_cycle;Signal;HPM_P1;HPM_P2
2022/11/19 00:00:53;;;;;;;5.22;3.65;;;11.70;99.90;;;;;;5029641;28;20079;-86
2022/11/19 00:03:21;;;;;;;7.30;3.97;;;11.60;99.90;;;;;;5015432;28;20029;-86
2022/11/19 00:05:48;;;;;;;6.73;4.00;;;11.60;99.90;;;;;;5009330;28;20294;-86
2022/11/19 00:08:19;;;;;;;6.57;4.15;;;11.60;99.90;;;;;;5013605;28;20119;-86
2022/11/19 00:10:46;;;;;;;6.20;3.83;;;11.60;99.90;;;;;;5037486;28;20107;-85
2022/11/19 00:13:13;;;;;;;6.57;4.00;;;11.60;99.90;;;;;;5032835;28;20700;-85
2022/11/19 00:15:39;;;;;;;5.18;3.53;;;11.60;99.90;;;;;;5018520;28;20013;-85
2022/11/19 00:18:06;;;;;;;5.20;3.30;;;11.50;99.90;;;;;;5034566;28;20436;-85
2022/11/19 00:20:33;;;;;;;4.38;3.25;;;11.50;99.90;;;;;;5015896;28;20493;-85
2022/11/19 00:22:59;;;;;;;4.68;3.38;;;11.50;99.90;;;;;;5034691;28;20178;-85
2022/11/19 00:25:28;;;;;;;5.28;3.30;;;11.50;99.90;;;;;;5027547;28;20032;-85
2022/11/19 00:27:58;;;;;;;6.13;3.50;;;11.50;99.90;;;;;;5005354;28;20139;-85
2022/11/19 00:30:24;;;;;;;5.27;3.33;;;11.50;99.90;;;;;;5025396;28;20446;-85
2022/11/19 00:32:49;;;;;;;5.30;3.25;;;11.60;99.90;;;;;;5024859;28;20031;-84
2022/11/19 00:35:15;;;;;;;6.00;3.50;;;11.50;99.90;;;;;;5026895;28;20028;-85
2022/11/19 00:37:41;;;;;;;4.85;3.55;;;11.50;99.90;;;;;;5024100;28;20029;-85
2022/11/19 00:40:07;;;;;;;5.70;3.40;;;11.50;99.90;;;;;;5014234;28;20226;-85
2022/11/19 00:42:34;;;;;;;4.82;3.53;;;11.50;99.90;;;;;;5011443;28;20546;-85
2022/11/19 00:44:59;;;;;;;4.88;3.13;;;11.50;99.90;;;;;;5036002;28;20052;-84
2022/11/19 00:47:25;;;;;;;5.30;3.17;;;11.50;99.90;;;;;;5049260;28;20066;-85
2022/11/19 00:49:50;;;;;;;5.72;3.70;;;11.50;99.90;;;;;;5031374;28;20060;-84
2022/11/19 00:52:17;;;;;;;5.37;3.50;;;11.50;99.90;;;;;;5011534;28;20456;-84
2022/11/19 00:54:42;;;;;;;5.32;3.45;;;11.50;99.90;;;;;;5021875;28;20056;-85
2022/11/19 00:57:08;;;;;;;4.97;3.30;;;11.50;99.90;;;;;;5031127;28;20223;-85
2022/11/19 00:59:34;;;;;;;5.53;3.37;;;11.50;99.90;;;;;;5006173;28;20032;-84
2022/11/19 01:01:59;;;;;;;4.67;3.23;;;11.50;99.90;;;;;;5029624;28;20269;-84
2022/11/19 01:04:25;;;;;;;5.45;3.40;;;11.50;99.90;;;;;;5029271;28;20034;-84
2022/11/19 01:06:51;;;;;;;6.50;3.23;;;11.50;99.90;;;;;;5043394;28;20091;-84
2022/11/19 01:09:16;;;;;;;5.30;3.58;;;11.50;99.90;;;;;;5004794;28;20470;-84
2022/11/19 01:11:42;;;;;;;4.33;2.90;;;11.50;99.90;;;;;;5026049;28;20021;-83
2022/11/19 01:14:08;;;;;;;4.25;2.88;;;11.50;99.90;;;;;;5008247;28;20123;-83
2022/11/19 01:16:39;;;;;;;5.47;3.03;;;11.50;99.90;;;;;;5039501;28;20017;-83
2022/11/19 01:19:07;;;;;;;4.40;2.85;;;11.50;99.90;;;;;;5022034;28;20051;-84
2022/11/19 01:21:34;;;;;;;5.03;3.30;;;11.50;99.90;;;;;;5030381;28;20382;-84
2022/11/19 01:24:01;;;;;;;4.95;3.15;;;11.50;99.90;;;;;;5017111;28;20583;-84
2022/11/19 01:26:27;;;;;;;4.33;3.13;;;11.50;99.90;;;;;;5035596;28;20032;-84
2022/11/19 01:28:53;;;;;;;5.93;3.60;;;11.50;99.90;;;;;;5008466;28;20132;-84
2022/11/19 01:31:24;;;;;;;7.00;3.45;;;11.60;99.90;;;;;;5009776;28;20013;-84
2022/11/19 01:33:50;;;;;;;5.35;3.28;;;11.50;99.90;;;;;;5024275;28;20021;-84
2022/11/19 01:36:25;;;;;;;4.63;3.13;;;11.50;99.90;;;;;;5032974;28;20021;-84
2022/11/19 01:38:53;;;;;;;6.07;3.75;;;11.50;99.90;;;;;;5023454;28;20029;-84
2022/11/19 01:41:21;;;;;;;5.28;3.50;;;11.50;99.90;;;;;;5056508;28;20036;-84
2022/11/19 01:43:50;;;;;;;5.53;3.42;;;11.50;99.90;;;;;;5017087;28;20025;-84
2022/11/19 01:46:22;;;;;;;5.38;3.25;;;11.50;99.90;;;;;;4997541;28;20346;-84
2022/11/19 01:48:56;;;;;;;5.23;3.20;;;11.50;99.90;;;;;;5024855;28;20025;-84
2022/11/19 01:51:28;;;;;;;6.28;3.50;;;11.50;99.90;;;;;;5042270;28;20025;-84
2022/11/19 01:53:58;;;;;;;5.57;3.50;;;11.50;99.90;;;;;;5027722;28;20041;-84
2022/11/19 01:56:24;;;;;;;5.30;3.70;;;11.50;99.90;;;;;;5034872;28;20505;-83
2022/11/19 01:58:58;;;;;;;6.07;3.72;;;11.40;99.90;;;;;;5033924;28;20374;-84
2022/11/19 02:01:25;;;;;;;5.40;3.27;;;11.40;99.90;;;;;;5009774;28;20104;-84
2022/11/19 02:03:51;;;;;;;6.18;3.42;;;11.40;99.90;;;;;;5021967;28;20115;-84
2022/11/19 02:06:18;;;;;;;5.40;3.55;;;11.40;99.90;;;;;;5060629;28;20033;-84
2022/11/19 02:08:46;;;;;;;4.68;3.55;;;11.40;99.90;;;;;;5046439;28;20533;-84
2022/11/19 02:11:40;;;;;;;5.28;3.53;;;11.40;99.90;;;;;;5000618;28;20022;-84
2022/11/19 02:14:28;;;;;;;5.13;3.50;;;11.40;99.90;;;;;;5014383;28;20752;-84
2022/11/19 02:17:14;;;;;;;5.47;3.33;;;11.40;99.90;;;;;;5013466;28;20465;-84
2022/11/19 02:20:04;;;;;;;5.57;3.95;;;11.40;99.90;;;;;;5042679;28;20065;-84
2022/11/19 02:22:54;;;;;;;5.80;3.47;;;11.40;99.90;;;;;;5035269;28;20060;-84
2022/11/19 02:25:38;;;;;;;5.35;3.30;;;11.30;99.90;;;;;;5019852;28;20025;-83
2022/11/19 02:28:24;;;;;;;5.77;3.60;;;11.40;99.90;;;;;;5034597;28;20226;-83
2022/11/19 02:30:56;;;;;;;7.50;3.90;;;11.30;99.90;;;;;;5032035;28;20075;-84
2022/11/19 02:33:33;;;;;;;6.30;4.05;;;11.30;99.90;;;;;;5029125;28;20044;-84
2022/11/19 02:36:13;;;;;;;5.40;3.42;;;11.30;99.90;;;;;;5025844;28;20044;-84
2022/11/19 02:38:54;;;;;;;5.00;3.35;;;11.30;99.90;;;;;;5030052;28;20036;-84
2022/11/19 02:41:35;;;;;;;6.20;3.90;;;11.30;99.90;;;;;;5041399;28;20658;-84
2022/11/19 02:47:17;;;;;;;6.53;4.13;;;11.30;99.90;;;;;;5012717;28;20312;-85
2022/11/19 02:49:44;;;;;;;4.72;3.30;;;11.20;99.90;;;;;;5016111;28;20036;-84
2022/11/19 02:52:10;;;;;;;4.93;3.40;;;11.20;99.90;;;;;;5054929;28;20401;-84
2022/11/19 02:54:36;;;;;;;5.53;3.60;;;11.20;99.90;;;;;;5041370;28;20038;-84
2022/11/19 02:57:03;;;;;;;6.43;3.90;;;11.20;99.90;;;;;;5020391;28;20114;-84
2022/11/19 03:05:07;;;;;;;5.75;3.45;;;11.20;99.90;;;;;;5025736;28;20039;-84
2022/11/19 03:07:34;;;;;;;6.47;3.85;;;11.20;99.90;;;;;;5022455;28;20110;-84
2022/11/19 03:10:04;;;;;;;6.65;3.95;;;11.20;99.90;;;;;;5035988;28;20032;-84
2022/11/19 03:12:57;;;;;;;5.90;4.13;;;11.20;99.90;;;;;;5049828;28;20022;-84
2022/11/19 03:18:26;;;;;;;5.25;3.20;;;11.20;99.90;;;;;;5017025;28;20176;-84
2022/11/19 03:20:55;;;;;;;5.25;3.72;;;11.20;99.90;;;;;;5051891;28;20025;-84
2022/11/19 03:23:39;;;;;;;5.15;3.50;;;11.20;99.90;;;;;;5050099;28;20473;-84
2022/11/19 03:26:34;;;;;;;5.22;3.53;;;11.20;99.90;;;;;;5012345;28;20456;-84
2022/11/19 03:29:03;;;;;;;5.47;3.30;;;11.20;99.90;;;;;;5009829;28;20038;-84
2022/11/19 03:31:31;;;;;;;5.50;3.42;;;11.10;99.90;;;;;;5038381;28;20524;-84
2022/11/19 03:34:06;;;;;;;6.63;3.90;;;11.20;99.90;;;;;;5011959;28;20025;-85
2022/11/19 03:36:36;;;;;;;6.03;3.65;;;11.20;99.90;;;;;;5027072;28;20717;-84
2022/11/19 03:39:07;;;;;;;6.13;4.15;;;11.20;99.90;;;;;;5032402;28;20107;-85
2022/11/19 03:41:35;;;;;;;6.83;4.20;;;11.20;99.90;;;;;;5009353;28;20241;-85
2022/11/19 03:44:10;;;;;;;5.63;3.95;;;11.20;99.90;;;;;;5040505;28;20032;-85
2022/11/19 03:46:37;;;;;;;5.70;4.00;;;11.20;99.90;;;;;;5029889;28;21192;-85
2022/11/19 03:49:05;;;;;;;6.68;3.88;;;11.20;99.90;;;;;;5028792;28;20586;-85
2022/11/19 03:51:43;;;;;;;5.68;3.88;;;11.20;99.90;;;;;;5017295;28;20110;-85
2022/11/19 03:54:09;;;;;;;6.60;4.17;;;11.20;99.90;;;;;;5055077;28;20033;-85
2022/11/19 03:56:38;;;;;;;6.35;4.07;;;11.20;99.90;;;;;;5033216;28;20033;-85
2022/11/19 03:59:04;;;;;;;5.90;3.97;;;11.20;99.90;;;;;;5028275;28;20428;-85
2022/11/19 04:01:32;;;;;;;6.00;3.97;;;11.10;99.90;;;;;;5011522;28;20333;-85
2022/11/19 04:06:42;;;;;;;6.03;4.18;;;11.10;99.90;;;;;;5028479;28;20114;-85
2022/11/19 04:09:08;;;;;;;7.78;4.60;;;11.20;99.90;;;;;;5039444;28;20108;-85
2022/11/19 04:11:34;;;;;;;6.30;4.00;;;11.20;99.90;;;;;;5014258;28;20301;-85
2022/11/19 04:13:59;;;;;;;5.85;4.22;;;11.20;99.90;;;;;;5064382;28;20069;-85
2022/11/19 04:16:25;;;;;;;6.03;4.07;;;11.20;99.90;;;;;;5023335;28;20266;-85
2022/11/19 04:18:50;;;;;;;6.53;4.53;;;11.20;99.90;;;;;;5029690;28;20207;-85
2022/11/19 04:21:16;;;;;;;7.03;4.20;;;11.20;99.90;;;;;;5024790;28;20032;-85
2022/11/19 04:23:42;;;;;;;6.37;4.37;;;11.20;99.90;;;;;;5022508;28;20024;-85
2022/11/19 04:26:07;;;;;;;6.15;4.03;;;11.20;99.90;;;;;;5023724;28;20028;-85
2022/11/19 04:28:33;;;;;;;5.60;4.03;;;11.20;99.90;;;;;;5026162;28;20132;-85
2022/11/19 04:30:59;;;;;;;6.43;4.30;;;11.20;99.90;;;;;;5013327;28;20025;-85
2022/11/19 04:33:24;;;;;;;6.10;4.37;;;11.20;99.90;;;;;;5023157;28;20313;-84
2022/11/19 04:35:50;;;;;;;6.05;4.20;;;11.20;99.90;;;;;;5013335;28;20770;-85
2022/11/19 04:38:16;;;;;;;5.37;3.90;;;11.20;99.90;;;;;;5008360;28;20251;-85
2022/11/19 04:40:41;;;;;;;5.57;4.03;;;11.20;99.90;;;;;;5017860;28;20513;-85
2022/11/19 04:43:07;;;;;;;7.13;4.30;;;11.20;99.90;;;;;;5025260;28;20079;-85
2022/11/19 04:45:32;;;;;;;6.30;4.20;;;11.20;99.90;;;;;;5031971;28;20109;-85
2022/11/19 04:47:58;;;;;;;5.93;4.20;;;11.20;99.90;;;;;;5006005;28;20017;-85
2022/11/19 04:50:24;;;;;;;6.47;4.47;;;11.20;99.90;;;;;;4996388;28;20799;-85
2022/11/19 04:52:49;;;;;;;6.35;4.32;;;11.20;99.90;;;;;;5019383;28;20517;-85
2022/11/19 04:55:15;;;;;;;6.53;4.33;;;11.20;99.90;;;;;;5033401;28;20327;-85
2022/11/19 04:57:41;;;;;;;7.10;4.53;;;11.20;99.90;;;;;;5058746;28;20034;-85
2022/11/19 05:00:07;;;;;;;7.13;4.55;;;11.20;99.90;;;;;;5055946;28;20021;-85
2022/11/19 05:02:33;;;;;;;7.93;4.70;;;11.20;99.90;;;;;;5029682;28;20371;-85
2022/11/19 05:04:58;;;;;;;7.47;4.53;;;11.20;99.90;;;;;;5017874;28;20052;-85
2022/11/19 05:07:24;;;;;;;5.80;3.88;;;11.20;99.90;;;;;;5046568;28;20032;-85
2022/11/19 05:09:49;;;;;;;6.90;4.30;;;11.20;99.90;;;;;;5020384;28;20022;-85
2022/11/19 05:12:15;;;;;;;6.57;4.00;;;11.20;99.90;;;;;;5026685;28;20089;-85
2022/11/19 05:14:41;;;;;;;7.05;3.85;;;11.20;99.90;;;;;;5040463;28;20025;-85
2022/11/19 05:17:07;;;;;;;7.80;4.60;;;11.20;99.90;;;;;;5031195;28;20072;-85
2022/11/19 05:19:32;;;;;;;7.45;4.35;;;11.20;99.90;;;;;;5028154;28;20688;-85
2022/11/19 05:21:58;;;;;;;7.63;4.17;;;11.10;99.90;;;;;;5004902;28;20052;-85
2022/11/19 05:24:23;;;;;;;7.88;4.38;;;11.00;99.90;;;;;;5020241;28;20875;-85
2022/11/19 05:26:49;;;;;;;7.57;4.03;;;11.00;99.90;;;;;;5036051;28;20493;-85
2022/11/19 05:29:15;;;;;;;8.07;4.47;;;10.90;99.90;;;;;;5024232;28;20041;-85
2022/11/19 05:31:40;;;;;;;8.80;4.40;;;10.80;99.90;;;;;;5026532;28;20017;-85
2022/11/19 05:34:06;;;;;;;6.75;3.30;;;10.70;99.90;;;;;;5022089;28;20025;-86
2022/11/19 05:36:32;;;;;;;7.27;4.03;;;10.70;99.90;;;;;;4991888;28;21060;-85
2022/11/19 05:38:57;;;;;;;6.60;3.80;;;10.60;99.90;;;;;;5021869;28;20013;-85
2022/11/19 05:41:23;;;;;;;6.00;3.80;;;10.50;99.90;;;;;;5000417;28;20773;-85
2022/11/19 05:43:48;;;;;;;7.00;3.70;;;10.50;99.90;;;;;;5044983;28;20025;-85
2022/11/19 05:46:14;;;;;;;6.28;3.75;;;10.40;99.90;;;;;;5022491;28;20029;-85
2022/11/19 05:48:40;;;;;;;6.10;3.53;;;10.40;99.90;;;;;;5034431;28;20045;-85
2022/11/19 05:51:05;;;;;;;5.03;3.05;;;10.30;99.90;;;;;;5018577;28;20035;-85
2022/11/19 05:53:31;;;;;;;5.93;3.43;;;10.30;99.90;;;;;;5039354;28;20029;-85
2022/11/19 05:55:56;;;;;;;5.90;3.50;;;10.30;99.90;;;;;;5024208;28;20680;-85
2022/11/19 05:58:22;;;;;;;7.13;3.42;;;10.20;99.90;;;;;;5027462;28;20067;-85
2022/11/19 06:00:53;;;;;;;5.93;3.57;;;10.20;99.90;;;;;;5027907;28;20513;-85
2022/11/19 06:03:19;;;;;;;6.10;3.50;;;10.20;99.90;;;;;;5018926;28;20033;-85
2022/11/19 06:05:44;;;;;;;5.47;3.57;;;10.10;99.90;;;;;;5007481;28;20149;-86
2022/11/19 06:08:10;;;;;;;6.20;3.70;;;10.10;99.90;;;;;;5013587;28;20803;-85
2022/11/19 06:10:35;;;;;;;6.37;3.80;;;10.00;99.90;;;;;;5024781;28;20104;-85
2022/11/19 06:13:02;;;;;;;6.60;3.78;;;10.00;99.90;;;;;;5033144;28;20022;-85
2022/11/19 06:15:28;;;;;;;6.20;3.63;;;9.90;99.90;;;;;;5023118;28;20525;-85
2022/11/19 06:17:55;;;;;;;6.17;3.67;;;9.80;99.90;;;;;;5031112;28;20207;-85
2022/11/19 06:20:21;;;;;;;6.35;3.47;;;9.90;99.90;;;;;;5019754;28;20432;-85
2022/11/19 06:22:46;;;;;;;5.57;3.37;;;9.80;99.90;;;;;;5028308;28;20172;-86
2022/11/19 06:25:12;;;;;;;6.57;3.80;;;9.80;99.90;;;;;;5011678;28;20044;-85
2022/11/19 06:27:38;;;;;;;5.57;3.50;;;9.80;99.90;;;;;;5039945;28;20259;-86
2022/11/19 06:30:05;;;;;;;5.75;3.33;;;9.70;99.90;;;;;;5027793;28;20037;-86
2022/11/19 06:32:31;;;;;;;5.38;3.28;;;9.70;99.90;;;;;;5020438;28;20321;-86
2022/11/19 06:34:57;;;;;;;6.13;3.37;;;9.70;99.90;;;;;;5039242;28;20037;-86
2022/11/19 06:37:23;;;;;;;6.20;3.67;;;9.70;99.90;;;;;;5013767;28;20276;-86
2022/11/19 06:39:49;;;;;;;6.60;3.80;;;9.60;99.90;;;;;;5005599;28;20030;-86
2022/11/19 06:44:59;;;;;;;6.03;3.45;;;9.60;99.90;;;;;;5024175;28;20056;-86
2022/11/19 06:47:24;;;;;;;5.75;3.40;;;9.50;99.90;;;;;;5030663;28;20056;-86
2022/11/19 06:49:50;;;;;;;5.60;3.63;;;9.50;99.90;;;;;;5049303;28;20014;-86
2022/11/19 06:52:16;;;;;;;5.47;2.97;;;9.40;99.90;;;;;;5022184;28;21575;-86
2022/11/19 06:54:41;;;;;;;6.15;3.40;;;9.40;99.90;;;;;;5012541;28;20033;-85
2022/11/19 06:57:07;;;;;;;6.13;3.57;;;9.30;99.90;;;;;;5014931;28;20127;-85
2022/11/19 06:59:33;;;;;;;5.53;3.10;;;9.30;99.90;;;;;;5015170;28;20545;-85
2022/11/19 07:01:59;;;;;;;5.45;3.28;;;9.30;99.90;;;;;;5028847;28;20059;-85
2022/11/19 07:04:25;;;;;;;5.63;3.40;;;9.20;99.90;;;;;;5006541;28;20189;-85
2022/11/19 07:06:50;;;;;;;5.50;3.00;;;9.20;99.90;;;;;;5013609;28;20022;-85
2022/11/19 07:09:16;;;;;;;5.05;3.00;;;9.20;99.90;;;;;;5003939;28;20618;-85
2022/11/19 07:11:42;;;;;;;5.07;2.67;;;9.20;99.90;;;;;;5032819;28;20021;-86
2022/11/19 07:14:08;;;;;;;4.10;2.70;;;9.20;99.90;;;;;;5004120;28;20378;-85
2022/11/19 07:16:35;;;;;;;3.97;2.40;;;9.10;99.90;;;;;;5037323;28;20112;-86
2022/11/19 07:19:04;;;;;;;4.17;2.40;;;9.10;99.90;;;;;;5027729;28;20057;-85
2022/11/19 07:21:30;;;;;;;3.97;2.55;;;9.00;99.90;;;;;;5034392;28;20056;-85
2022/11/19 07:23:56;;;;;;;4.35;2.50;;;9.00;99.90;;;;;;5037549;28;20056;-85
2022/11/19 07:26:22;;;;;;;3.83;2.15;;;9.00;99.90;;;;;;5025318;28;20196;-86
2022/11/19 07:28:48;;;;;;;4.10;2.30;;;8.90;99.90;;;;;;5046497;28;20108;-86
2022/11/19 07:31:14;;;;;;;4.43;2.27;;;9.00;99.90;;;;;;5021032;28;20209;-86
2022/11/19 07:33:40;;;;;;;3.60;2.20;;;8.90;99.90;;;;;;5009663;28;20394;-85
2022/11/19 07:36:07;;;;;;;3.47;2.03;;;8.90;99.90;;;;;;5027128;28;20025;-86
2022/11/19 07:38:33;;;;;;;3.45;2.05;;;8.90;99.90;;;;;;5039794;28;20033;-86
2022/11/19 07:40:59;;;;;;;3.55;2.20;;;8.80;99.90;;;;;;5014933;28;20034;-86
2022/11/19 07:43:25;;;;;;;3.90;2.40;;;8.80;99.90;;;;;;5021792;28;20029;-86
2022/11/19 07:45:50;;;;;;;3.90;2.35;;;8.70;99.90;;;;;;5020585;28;20037;-86
2022/11/19 07:48:16;;;;;;;5.00;2.70;;;8.70;99.90;;;;;;5025672;28;20231;-86
2022/11/19 07:50:42;;;;;;;4.30;2.50;;;8.70;99.90;;;;;;5028292;28;20104;-86
2022/11/19 07:53:08;;;;;;;4.93;2.80;;;8.60;99.90;;;;;;5031592;28;20053;-86
2022/11/19 07:55:33;;;;;;;4.80;2.75;;;8.60;99.90;;;;;;5014064;28;20412;-86
2022/11/19 07:57:59;;;;;;;4.13;2.57;;;8.60;99.90;;;;;;5018401;28;20031;-86
2022/11/19 08:00:25;;;;;;;4.13;2.60;;;8.60;99.90;;;;;;5035060;28;20029;-85
2022/11/19 08:02:51;;;;;;;5.10;2.83;;;8.60;99.90;;;;;;5021061;28;20022;-86
2022/11/19 08:05:16;;;;;;;5.60;3.20;;;8.60;99.90;;;;;;5017196;28;20473;-86
2022/11/19 08:07:42;;;;;;;4.60;3.00;;;8.60;99.90;;;;;;5030473;28;20029;-86
2022/11/19 08:10:09;;;;;;;5.22;2.95;;;8.50;99.90;;;;;;5019448;28;20029;-86
2022/11/19 08:12:35;;;;;;;5.72;3.33;;;8.50;99.90;;;;;;4995415;28;20037;-86
2022/11/19 08:15:01;;;;;;;5.15;3.00;;;8.50;99.90;;;;;;5010574;28;20361;-86
2022/11/19 08:20:11;;;;;;;6.53;3.47;;;8.40;99.90;;;;;;5020775;28;20021;-86
2022/11/19 08:22:39;;;;;;;6.13;3.13;;;8.40;99.90;;;;;;5027770;28;20629;-86
2022/11/19 08:25:05;;;;;;;5.53;3.22;;;8.40;99.90;;;;;;4985691;28;20025;-85
2022/11/19 08:27:31;;;;;;;5.70;3.20;;;8.40;99.90;;;;;;5035730;28;20064;-86
2022/11/19 08:29:56;;;;;;;6.85;3.42;;;8.40;99.90;;;;;;5021659;28;20100;-86
2022/11/19 08:32:22;;;;;;;6.87;3.90;;;8.40;99.90;;;;;;4982785;28;20021;-86
2022/11/19 08:34:48;;;;;;;7.22;3.97;;;8.40;99.90;;;;;;5001024;28;20051;-86
2022/11/19 08:37:13;;;;;;;6.33;3.47;;;8.40;99.90;;;;;;5001574;28;20025;-86
2022/11/19 08:39:39;;;;;;;7.35;4.03;;;8.40;99.90;;;;;;5012729;28;20025;-86
2022/11/19 08:44:50;;;;;;;7.30;3.65;;;8.30;99.90;;;;;;5007044;28;20025;-86
2022/11/19 08:47:16;;;;;;;7.82;4.18;;;8.30;99.90;;;;;;4989029;28;20407;-86
2022/11/19 08:49:41;;;;;;;6.33;3.80;;;8.30;99.90;;;;;;5026998;28;20033;-86
2022/11/19 08:52:07;;;;;;;6.30;3.58;;;8.30;99.90;;;;;;5011100;28;20037;-86
2022/11/19 08:54:33;;;;;;;6.37;3.60;;;8.30;99.90;;;;;;5017660;28;20133;-86
2022/11/19 08:56:58;;;;;;;6.90;3.78;;;8.30;99.90;;;;;;5003111;28;20078;-86
2022/11/19 08:59:24;;;;;;;5.93;3.30;;;8.30;99.90;;;;;;4986246;28;20056;-86
2022/11/19 09:01:50;;;;;;;6.15;3.40;;;8.30;99.90;;;;;;5010966;28;20217;-86
2022/11/19 09:04:15;;;;;;;6.53;3.90;;;8.30;99.90;;;;;;5018805;28;20021;-86
2022/11/19 09:06:41;;;;;;;7.32;4.07;;;8.30;99.90;;;;;;5014889;28;20024;-86
2022/11/19 09:09:07;;;;;;;8.03;4.30;;;8.30;99.90;;;;;;5028708;28;20487;-86
2022/11/19 09:11:33;;;;;;;7.28;4.15;;;8.30;99.90;;;;;;4989289;28;20091;-86
2022/11/19 09:13:59;;;;;;;7.25;3.95;;;8.20;99.90;;;;;;5002808;28;20742;-84
2022/11/19 09:16:25;;;;;;;9.32;4.90;;;8.20;99.90;;;;;;5021010;28;20028;-85
2022/11/19 09:18:51;;;;;;;9.13;4.50;;;8.20;99.90;;;;;;5015679;28;20058;-85
2022/11/19 09:21:17;;;;;;;8.48;4.65;;;8.20;99.90;;;;;;5005225;28;20021;-85
2022/11/19 09:23:42;;;;;;;8.37;4.77;;;8.20;99.90;;;;;;5042516;28;20075;-85
2022/11/19 09:26:17;;;;;;;11.18;5.63;;;8.20;99.90;;;;;;5049885;28;20082;-85
2022/11/19 09:28:43;;;;;;;9.85;4.97;;;8.20;99.90;;;;;;5000638;28;20133;-85
2022/11/19 09:31:14;;;;;;;10.43;5.20;;;8.20;99.90;;;;;;4994579;28;20116;-82
2022/11/19 09:33:41;;;;;;;10.27;5.18;;;8.20;99.90;;;;;;5047285;28;21000;-83
2022/11/19 09:36:09;;;;;;;10.02;5.07;;;8.20;99.90;;;;;;5009587;28;20432;-84
2022/11/19 09:38:35;;;;;;;10.50;5.30;;;8.20;99.90;;;;;;5020877;28;20017;-87
2022/11/19 09:41:22;;;;;;;11.63;5.53;;;8.20;99.90;;;;;;5013371;28;20634;-88
2022/11/19 09:43:54;;;;;;;10.63;5.80;;;8.20;99.90;;;;;;5003746;28;20392;-87
2022/11/19 09:46:50;;;;;;;12.88;6.63;;;8.20;99.90;;;;;;4990108;28;20057;-87
2022/11/19 09:49:28;;;;;;;11.65;5.90;;;8.20;99.90;;;;;;5004474;28;20021;-84
2022/11/19 09:52:03;;;;;;;10.93;5.70;;;8.20;99.90;;;;;;5023386;28;20021;-88
2022/11/19 09:54:28;;;;;;;13.80;6.68;;;8.20;99.90;;;;;;5040177;28;20036;-88
2022/11/19 09:56:55;;;;;;;11.03;5.73;;;8.20;99.90;;;;;;5015794;28;20685;-88
2022/11/19 09:59:26;;;;;;;12.10;6.05;;;8.20;99.90;;;;;;5033066;28;20049;-88
2022/11/19 10:01:54;;;;;;;12.73;6.13;;;8.20;99.90;;;;;;5004524;28;20134;-87
2022/11/19 10:04:32;;;;;;;13.27;6.77;;;8.20;99.90;;;;;;5024139;28;20025;-88
2022/11/19 10:07:21;;;;;;;11.27;6.40;;;8.20;99.90;;;;;;5023904;28;20044;-87
2022/11/19 10:10:25;;;;;;;11.30;5.35;;;8.20;99.90;;;;;;5043609;28;20108;-85
2022/11/19 10:13:10;;;;;;;10.50;5.50;;;8.10;99.90;;;;;;5001785;28;20112;-85
2022/11/19 10:15:47;;;;;;;10.77;6.00;;;8.20;99.90;;;;;;5019890;28;20114;-85
2022/11/19 10:18:51;;;;;;;9.87;5.13;;;8.10;99.90;;;;;;5063024;28;20036;-85
2022/11/19 10:21:37;;;;;;;9.35;4.70;;;8.10;99.90;;;;;;5016732;28;20145;-85
2022/11/19 10:24:16;;;;;;;9.52;4.95;;;8.10;99.90;;;;;;5031342;28;20332;-85
2022/11/19 10:26:49;;;;;;;11.20;5.55;;;8.10;99.90;;;;;;5027047;28;20067;-84
2022/11/19 10:29:19;;;;;;;9.75;4.85;;;8.10;99.90;;;;;;5033892;28;20470;-84
2022/11/19 10:31:46;;;;;;;9.77;5.03;;;8.10;99.90;;;;;;5015141;28;20043;-84
2022/11/19 10:34:32;;;;;;;9.75;5.03;;;8.10;99.90;;;;;;5039872;28;20053;-84
2022/11/19 10:37:08;;;;;;;11.75;5.93;;;8.10;99.90;;;;;;5047267;28;20941;-85
2022/11/19 10:39:45;;;;;;;12.15;6.15;;;8.10;99.90;;;;;;5040372;28;20532;-85
2022/11/19 10:42:25;;;;;;;11.52;6.43;;;8.10;99.90;;;;;;5033375;28;20059;-84
2022/11/19 10:45:09;;;;;;;12.13;5.50;;;8.10;99.90;;;;;;5015056;28;20292;-84
2022/11/19 10:48:17;;;;;;;12.35;6.07;;;8.10;99.90;;;;;;5002976;28;20043;-84
2022/11/19 10:50:43;;;;;;;11.48;5.28;;;8.10;99.90;;;;;;5023546;28;20032;-85
2022/11/19 10:53:35;;;;;;;14.33;6.77;;;8.10;99.90;;;;;;5009008;28;20030;-86
2022/11/19 10:56:09;;;;;;;11.97;5.73;;;8.00;99.90;;;;;;5022429;28;20306;-85
2022/11/19 10:58:56;;;;;;;14.25;6.72;;;8.10;99.90;;;;;;5032656;28;20053;-84
2022/11/19 11:01:35;;;;;;;14.38;6.82;;;8.00;99.90;;;;;;5029390;28;20276;-84
2022/11/19 11:04:20;;;;;;;15.40;7.43;;;8.00;99.90;;;;;;5034403;28;20030;-84
2022/11/19 11:06:48;;;;;;;13.50;6.78;;;8.00;99.90;;;;;;5034531;28;20021;-84
2022/11/19 11:09:32;;;;;;;13.90;6.30;;;8.00;99.90;;;;;;5015515;28;20446;-84
2022/11/19 11:14:53;;;;;;;14.95;6.95;;;7.90;99.90;;;;;;5031616;28;20496;-84
2022/11/19 11:17:22;;;;;;;14.25;6.22;;;7.90;99.90;;;;;;5048520;28;20025;-83
2022/11/19 11:20:03;;;;;;;16.00;7.68;;;8.00;99.90;;;;;;5013655;28;20544;-84
2022/11/19 11:22:29;;;;;;;17.27;8.20;;;8.00;99.90;;;;;;5032883;28;20253;-84
2022/11/19 11:24:55;;;;;;;17.10;7.85;;;8.00;99.90;;;;;;5048059;28;20119;-85
2022/11/19 11:27:27;;;;;;;16.85;7.88;;;8.00;99.90;;;;;;5027525;28;20563;-87
2022/11/19 11:30:11;;;;;;;17.55;7.85;;;8.00;99.90;;;;;;5025357;28;20482;-87
2022/11/19 11:32:38;;;;;;;16.75;8.13;;;8.00;99.90;;;;;;5033461;28;20030;-87
2022/11/19 11:35:05;;;;;;;16.80;8.27;;;8.00;99.90;;;;;;5007900;28;20029;-87
2022/11/19 11:37:32;;;;;;;18.02;7.72;;;8.00;99.90;;;;;;5044877;28;20033;-87
2022/11/19 11:39:58;;;;;;;19.13;8.48;;;8.00;99.90;;;;;;5026402;28;20036;-87
2022/11/19 11:42:27;;;;;;;17.17;8.07;;;7.90;99.90;;;;;;5023472;28;20721;-87
2022/11/19 11:45:00;;;;;;;19.63;8.98;;;7.90;99.90;;;;;;5015830;28;20083;-88
2022/11/19 11:47:28;;;;;;;18.57;9.07;;;7.90;99.90;;;;;;5010672;28;20218;-87
2022/11/19 11:50:15;;;;;;;18.08;8.40;;;7.80;99.90;;;;;;4995141;28;20525;-87
2022/11/19 11:52:45;;;;;;;17.40;8.43;;;7.80;99.90;;;;;;5015575;28;20088;-87
2022/11/19 11:55:37;;;;;;;18.05;8.18;;;7.70;99.90;;;;;;5016502;28;20053;-86
2022/11/19 11:58:32;;;;;;;19.65;9.20;;;7.70;99.90;;;;;;5028986;28;20037;-86
2022/11/19 12:01:18;;;;;;;19.37;8.00;;;7.70;99.90;;;;;;5018903;28;20038;-87
2022/11/19 12:03:58;;;;;;;17.70;7.63;;;7.70;99.90;;;;;;5017301;28;20030;-87
2022/11/19 12:06:27;;;;;;;20.58;9.07;;;7.70;99.90;;;;;;4992996;28;20021;-87
2022/11/19 12:09:16;;;;;;;18.42;8.82;;;7.70;99.90;;;;;;5032301;28;20424;-87
2022/11/19 12:11:54;;;;;;;16.52;8.10;;;7.60;99.90;;;;;;5019402;28;20014;-87
2022/11/19 12:14:46;;;;;;;17.73;8.10;;;7.60;99.90;;;;;;5009670;28;20100;-87
2022/11/19 12:17:17;;;;;;;20.25;8.38;;;7.60;99.90;;;;;;5032110;28;20031;-88
2022/11/19 12:20:10;;;;;;;19.45;8.95;;;7.50;99.90;;;;;;5031427;28;20096;-88
2022/11/19 12:22:59;;;;;;;16.80;7.32;;;7.50;99.90;;;;;;4996909;28;20312;-91
2022/11/19 12:25:54;;;;;;;18.92;8.27;;;7.50;99.90;;;;;;5030741;28;20606;-88
2022/11/19 12:28:29;;;;;;;22.87;9.83;;;7.50;99.90;;;;;;5014234;28;20379;-88
2022/11/19 12:31:25;;;;;;;23.20;9.05;;;7.40;99.90;;;;;;5039705;28;20219;-87
2022/11/19 12:34:22;;;;;;;18.90;7.93;;;7.40;99.90;;;;;;5011819;28;20029;-87
2022/11/19 12:37:22;;;;;;;20.60;9.25;;;7.30;99.90;;;;;;5005359;28;20095;-88
2022/11/19 12:39:58;;;;;;;21.65;8.93;;;7.30;99.90;;;;;;5012337;28;20050;-87
2022/11/19 12:42:29;;;;;;;21.37;8.70;;;7.30;99.90;;;;;;5020790;28;20753;-83
2022/11/19 12:45:11;;;;;;;20.90;8.93;;;7.30;99.90;;;;;;5036311;28;20406;-84
2022/11/19 12:48:01;;;;;;;20.55;8.15;;;7.20;99.90;;;;;;5009141;28;20120;-83
2022/11/19 12:50:42;;;;;;;23.98;8.95;;;7.20;99.90;;;;;;5002774;28;20024;-83
2022/11/19 12:53:21;;;;;;;21.00;8.48;;;7.20;99.90;;;;;;4986423;28;20392;-83
2022/11/19 12:55:49;;;;;;;17.50;7.73;;;7.20;99.90;;;;;;5006072;28;20239;-84
2022/11/19 12:58:24;;;;;;;21.70;9.30;;;7.20;99.90;;;;;;5004440;28;20380;-84
2022/11/19 13:01:01;;;;;;;21.05;8.55;;;7.20;99.90;;;;;;5016999;28;20034;-84
2022/11/19 13:03:56;;;;;;;23.33;8.30;;;7.20;99.90;;;;;;5020312;28;20029;-83
2022/11/19 13:06:55;;;;;;;24.75;9.25;;;7.20;99.90;;;;;;5031028;28;20022;-84
2022/11/19 13:09:42;;;;;;;20.47;8.43;;;7.30;99.90;;;;;;5021887;28;20048;-84
2022/11/19 13:12:16;;;;;;;22.75;9.20;;;7.30;99.90;;;;;;4972156;28;20042;-83
2022/11/19 13:14:55;;;;;;;19.25;8.32;;;7.30;99.90;;;;;;5045632;28;20021;-84
2022/11/19 13:17:39;;;;;;;19.92;9.07;;;7.30;99.90;;;;;;5027058;28;20090;-84
2022/11/19 13:20:18;;;;;;;21.50;8.18;;;7.30;99.90;;;;;;5020903;28;20110;-84
2022/11/19 13:22:46;;;;;;;22.13;8.50;;;7.30;99.90;;;;;;5010567;28;20087;-83
2022/11/19 13:25:21;;;;;;;19.92;8.93;;;7.30;99.90;;;;;;5017427;28;20732;-84
2022/11/19 13:27:49;;;;;;;19.00;7.93;;;7.30;99.90;;;;;;5019831;28;20064;-84
2022/11/19 13:30:20;;;;;;;20.40;8.98;;;7.40;99.90;;;;;;5016199;28;20264;-85
2022/11/19 13:33:19;;;;;;;24.30;10.35;;;7.40;99.90;;;;;;5031753;28;20022;-84
2022/11/19 13:36:02;;;;;;;19.87;8.87;;;7.40;99.90;;;;;;5019034;28;20057;-84